Time;durP1;ratioP1;P1;durP2;ratioP2;P2;SDS_P1;SDS_P2;PMS_P1;PMS_P2;Temp;Humidity;BMP_temperature;BMP_pressure;BME280_temperature;BME280_humidity;BME280_pressure;Samples;Min_cycle;Max_cycle;Signal;HPM_P1;HPM_P2
2024/04/07 00:01:20;;;;;;;21.33;20.37;;;21.60;54.90;;;;;;5060417;28;20502;-66
2024/04/07 00:03:46;;;;;;;21.20;20.40;;;21.60;54.90;;;;;;5062494;28;20233;-66
2024/04/07 00:06:12;;;;;;;24.97;23.97;;;21.60;54.80;;;;;;5069949;28;20432;-66
2024/04/07 00:08:38;;;;;;;25.03;23.53;;;21.60;54.60;;;;;;5059293;28;20198;-66
2024/04/07 00:11:07;;;;;;;21.57;20.53;;;21.60;54.60;;;;;;5062044;28;20440;-66
2024/04/07 00:13:33;;;;;;;21.40;20.50;;;21.60;54.50;;;;;;5062023;28;20218;-66
2024/04/07 00:16:01;;;;;;;21.00;20.30;;;21.60;54.50;;;;;;5064091;28;20523;-66
2024/04/07 00:18:26;;;;;;;21.80;20.90;;;21.60;54.60;;;;;;5063905;28;20193;-66
2024/04/07 00:21:02;;;;;;;22.47;21.37;;;21.60;54.50;;;;;;5060685;28;20483;-66
2024/04/07 00:23:28;;;;;;;21.63;20.67;;;21.60;54.60;;;;;;5065199;28;20204;-66
2024/04/07 00:25:55;;;;;;;22.40;21.60;;;21.60;54.50;;;;;;5065266;28;20440;-66
2024/04/07 00:28:22;;;;;;;21.80;21.00;;;21.50;54.40;;;;;;5064153;28;20197;-66
2024/04/07 00:30:49;;;;;;;21.90;21.00;;;21.50;54.50;;;;;;5061836;28;20479;-66
2024/04/07 00:33:15;;;;;;;20.70;20.00;;;21.50;54.50;;;;;;5060674;28;20935;-66
2024/04/07 00:35:42;;;;;;;20.70;20.00;;;21.60;54.60;;;;;;5061765;28;20454;-66
2024/04/07 00:38:07;;;;;;;21.67;20.60;;;21.50;54.60;;;;;;5064886;28;20204;-66
2024/04/07 00:40:34;;;;;;;21.70;20.40;;;21.50;54.70;;;;;;5064403;28;20479;-66
2024/04/07 00:43:05;;;;;;;22.53;21.50;;;21.50;54.70;;;;;;5062582;28;20205;-66
2024/04/07 00:45:33;;;;;;;21.20;20.40;;;21.50;54.90;;;;;;5064941;28;20458;-66
2024/04/07 00:47:59;;;;;;;22.20;21.27;;;21.50;54.80;;;;;;5062707;28;20448;-66
2024/04/07 00:50:25;;;;;;;20.77;20.00;;;21.60;54.90;;;;;;5060466;28;20456;-66
2024/04/07 00:52:52;;;;;;;21.63;20.70;;;21.50;54.90;;;;;;5062153;28;20695;-66
2024/04/07 00:55:19;;;;;;;22.50;21.70;;;21.50;55.00;;;;;;5064690;28;20460;-66
2024/04/07 00:57:47;;;;;;;22.03;20.93;;;21.50;55.10;;;;;;5064597;28;20450;-66
2024/04/07 01:00:14;;;;;;;20.87;20.00;;;21.50;55.20;;;;;;5044457;28;20471;-66
2024/04/07 01:02:41;;;;;;;21.57;20.87;;;21.50;55.30;;;;;;5064575;28;20435;-66
2024/04/07 01:05:07;;;;;;;21.17;20.37;;;21.50;55.40;;;;;;5061321;28;20506;-66
2024/04/07 01:07:35;;;;;;;21.83;20.73;;;21.50;55.50;;;;;;5059612;28;20443;-66
2024/04/07 01:10:02;;;;;;;21.07;20.37;;;21.50;55.50;;;;;;5055606;28;20950;-66
2024/04/07 01:12:28;;;;;;;21.30;20.33;;;21.50;55.50;;;;;;5064480;28;20939;-66
2024/04/07 01:14:55;;;;;;;21.10;20.07;;;21.50;55.50;;;;;;5062846;28;20466;-66
2024/04/07 01:17:21;;;;;;;21.80;20.80;;;21.50;55.40;;;;;;5060784;28;20198;-66
2024/04/07 01:19:50;;;;;;;22.50;21.50;;;21.50;55.40;;;;;;5056448;28;20432;-66
2024/04/07 01:22:16;;;;;;;20.60;19.90;;;21.50;55.50;;;;;;5060809;28;20443;-66
2024/04/07 01:24:44;;;;;;;21.90;21.00;;;21.40;55.40;;;;;;5060721;28;20973;-66
2024/04/07 01:27:10;;;;;;;21.20;20.30;;;21.40;55.60;;;;;;5063799;28;20201;-66
2024/04/07 01:29:36;;;;;;;22.03;21.23;;;21.50;55.70;;;;;;5063922;28;20435;-66
2024/04/07 01:32:04;;;;;;;21.90;21.10;;;21.40;55.60;;;;;;5063093;28;20202;-66
2024/04/07 01:34:30;;;;;;;22.10;21.20;;;21.40;55.70;;;;;;5063779;28;20997;-66
2024/04/07 01:36:56;;;;;;;21.10;20.20;;;21.50;55.70;;;;;;5062332;28;20446;-66
2024/04/07 01:39:23;;;;;;;21.73;20.73;;;21.40;55.40;;;;;;5055908;28;20439;-66
2024/04/07 01:41:50;;;;;;;22.60;21.60;;;21.40;55.50;;;;;;5062975;28;20726;-66
2024/04/07 01:44:17;;;;;;;22.27;21.30;;;21.40;55.50;;;;;;5060188;28;20460;-66
2024/04/07 01:46:42;;;;;;;21.20;20.50;;;21.40;55.60;;;;;;5060326;28;20436;-66
2024/04/07 01:49:09;;;;;;;21.50;20.80;;;21.40;55.80;;;;;;5060517;28;20439;-66
2024/04/07 01:51:35;;;;;;;21.87;20.87;;;21.40;55.70;;;;;;5052665;28;20202;-66
2024/04/07 01:54:02;;;;;;;21.97;21.17;;;21.40;55.60;;;;;;5060280;28;20460;-66
2024/04/07 01:56:28;;;;;;;21.60;20.80;;;21.40;55.70;;;;;;5066243;28;20208;-66
2024/04/07 01:58:56;;;;;;;20.43;19.73;;;21.40;55.90;;;;;;5060813;28;21010;-66
2024/04/07 02:01:22;;;;;;;20.30;19.57;;;21.40;55.90;;;;;;5062296;28;20212;-66
2024/04/07 02:03:49;;;;;;;21.13;20.40;;;21.40;55.60;;;;;;5058317;28;21010;-66
2024/04/07 02:06:14;;;;;;;20.90;20.10;;;21.40;55.30;;;;;;5063541;28;20251;-66
2024/04/07 02:08:41;;;;;;;22.40;21.20;;;21.30;55.10;;;;;;5063468;28;20431;-66
2024/04/07 02:11:07;;;;;;;21.30;20.50;;;21.30;55.40;;;;;;5060242;28;20209;-66
2024/04/07 02:13:34;;;;;;;22.27;21.10;;;21.30;55.60;;;;;;5063076;28;20462;-66
2024/04/07 02:16:01;;;;;;;22.17;21.17;;;21.30;55.60;;;;;;5061762;28;20213;-66
2024/04/07 02:18:27;;;;;;;22.17;21.17;;;21.30;55.60;;;;;;5059853;28;20455;-66
2024/04/07 02:20:53;;;;;;;21.70;20.90;;;21.30;55.50;;;;;;5060018;28;20487;-66
2024/04/07 02:23:20;;;;;;;21.93;21.13;;;21.30;55.60;;;;;;5063190;28;20435;-66
2024/04/07 02:25:46;;;;;;;26.70;25.07;;;21.30;55.60;;;;;;5062603;28;20205;-66
2024/04/07 02:28:13;;;;;;;21.80;21.00;;;21.30;55.70;;;;;;5059854;28;20436;-66
2024/04/07 02:30:40;;;;;;;21.77;20.80;;;21.30;55.80;;;;;;5058049;28;20268;-66
2024/04/07 02:33:08;;;;;;;23.17;21.90;;;21.30;55.70;;;;;;5060812;28;20447;-66
2024/04/07 02:35:35;;;;;;;21.43;20.53;;;21.20;55.90;;;;;;5059856;28;20906;-66
2024/04/07 02:38:02;;;;;;;22.73;21.87;;;21.20;56.60;;;;;;5061004;28;20447;-66
2024/04/07 02:40:28;;;;;;;22.00;21.10;;;21.20;56.20;;;;;;5062632;28;20506;-65
2024/04/07 02:42:55;;;;;;;22.00;21.10;;;21.20;56.50;;;;;;5062285;28;20443;-65
2024/04/07 02:48:08;;;;;;;23.23;22.10;;;21.20;57.00;;;;;;5061684;28;20578;-66
2024/04/07 02:50:36;;;;;;;22.43;21.30;;;21.20;57.30;;;;;;5055153;28;20447;-66
2024/04/07 02:53:03;;;;;;;22.47;21.53;;;21.20;57.70;;;;;;5057741;28;20823;-66
2024/04/07 02:55:29;;;;;;;22.83;21.80;;;21.20;58.00;;;;;;5063298;28;20460;-66
2024/04/07 02:57:56;;;;;;;21.90;20.87;;;21.10;58.30;;;;;;5063949;28;20440;-66
2024/04/07 03:00:22;;;;;;;22.57;21.47;;;21.10;58.70;;;;;;5066521;28;20197;-66
2024/04/07 03:02:49;;;;;;;23.10;21.77;;;21.10;59.60;;;;;;5065152;28;20459;-66
2024/04/07 03:05:16;;;;;;;23.07;22.17;;;21.10;59.20;;;;;;5066315;28;20225;-66
2024/04/07 03:07:43;;;;;;;22.13;21.13;;;21.10;59.50;;;;;;5066679;28;20500;-66
2024/04/07 03:10:09;;;;;;;22.50;21.60;;;21.10;60.30;;;;;;5063683;28;20443;-66
2024/04/07 03:12:36;;;;;;;23.13;22.23;;;21.20;60.10;;;;;;5067571;28;20439;-66
2024/04/07 03:15:03;;;;;;;22.37;21.47;;;21.10;60.40;;;;;;5063122;28;20824;-66
2024/04/07 03:17:29;;;;;;;20.80;20.10;;;21.10;60.50;;;;;;5063037;28;20444;-66
2024/04/07 03:19:55;;;;;;;22.10;20.97;;;21.10;60.90;;;;;;5063298;28;20450;-66
2024/04/07 03:22:23;;;;;;;21.97;21.17;;;21.20;61.20;;;;;;5066392;28;21014;-66
2024/04/07 03:24:49;;;;;;;22.60;21.60;;;21.10;61.60;;;;;;5062770;28;20774;-66
2024/04/07 03:27:16;;;;;;;22.23;21.43;;;21.10;62.00;;;;;;5066010;28;20432;-66
2024/04/07 03:29:42;;;;;;;23.10;22.23;;;21.10;62.50;;;;;;5063663;28;20217;-66
2024/04/07 03:32:08;;;;;;;22.17;21.37;;;21.10;62.60;;;;;;5064904;28;20809;-66
2024/04/07 03:34:34;;;;;;;22.83;21.83;;;21.10;62.90;;;;;;5066079;28;20213;-66
2024/04/07 03:37:01;;;;;;;22.83;21.93;;;21.10;63.30;;;;;;5062858;28;20984;-66
2024/04/07 03:39:29;;;;;;;23.50;22.50;;;21.00;63.70;;;;;;5066213;28;20201;-66
2024/04/07 03:41:56;;;;;;;22.13;21.23;;;21.00;64.10;;;;;;5065137;28;20474;-66
2024/04/07 03:44:23;;;;;;;23.47;22.47;;;21.00;64.30;;;;;;5062561;28;20460;-66
2024/04/07 03:46:49;;;;;;;22.33;21.23;;;21.00;64.60;;;;;;5061561;28;20447;-66
2024/04/07 03:49:15;;;;;;;23.40;21.50;;;21.00;64.90;;;;;;5062853;28;20439;-65
2024/04/07 03:51:42;;;;;;;22.80;21.80;;;21.00;65.10;;;;;;5062206;28;20432;-66
2024/04/07 03:54:08;;;;;;;23.00;21.70;;;21.00;65.30;;;;;;5064428;28;20594;-66
2024/04/07 03:56:36;;;;;;;22.23;21.40;;;21.00;65.40;;;;;;5065603;28;20439;-66
2024/04/07 03:59:01;;;;;;;21.80;20.90;;;21.00;65.50;;;;;;5065780;28;20206;-66
2024/04/07 04:01:29;;;;;;;23.70;22.40;;;21.00;65.90;;;;;;5065153;28;20844;-66
2024/04/07 04:03:54;;;;;;;24.03;22.93;;;21.00;66.00;;;;;;5065674;28;20221;-67
2024/04/07 04:06:21;;;;;;;24.77;23.40;;;21.00;66.00;;;;;;5066024;28;20443;-67
2024/04/07 04:08:47;;;;;;;24.23;23.13;;;21.00;66.20;;;;;;5065615;28;20204;-66
2024/04/07 04:11:13;;;;;;;24.30;23.10;;;20.90;66.20;;;;;;5062413;28;20443;-66
2024/04/07 04:13:43;;;;;;;24.40;23.20;;;20.90;66.20;;;;;;5061502;28;20593;-66
2024/04/07 04:16:10;;;;;;;24.77;23.77;;;21.00;66.40;;;;;;5063500;28;20452;-66
2024/04/07 04:18:35;;;;;;;24.23;23.23;;;20.90;66.40;;;;;;5065487;28;20440;-66
2024/04/07 04:21:02;;;;;;;23.23;22.43;;;20.90;66.40;;;;;;5063903;28;20818;-66
2024/04/07 04:23:28;;;;;;;24.77;23.63;;;20.90;66.40;;;;;;5061914;28;20197;-66
2024/04/07 04:25:55;;;;;;;23.97;22.73;;;20.90;66.20;;;;;;5061248;28;20759;-67
2024/04/07 04:28:22;;;;;;;23.97;22.90;;;20.90;66.00;;;;;;5053972;28;20205;-66
2024/04/07 04:30:55;;;;;;;24.67;23.40;;;20.90;65.80;;;;;;5061477;28;20449;-66
2024/04/07 04:33:21;;;;;;;23.97;23.07;;;20.90;65.60;;;;;;5053531;28;20448;-66
2024/04/07 04:35:49;;;;;;;24.10;22.80;;;20.90;65.60;;;;;;5061089;28;20486;-66
2024/04/07 04:38:15;;;;;;;24.73;23.70;;;20.90;65.50;;;;;;5064357;28;20535;-66
2024/04/07 04:40:41;;;;;;;23.50;22.60;;;20.90;65.40;;;;;;5064513;28;20539;-66
2024/04/07 04:43:07;;;;;;;24.00;23.10;;;20.80;65.20;;;;;;5063330;28;20209;-66
2024/04/07 04:45:34;;;;;;;27.40;25.43;;;20.80;65.20;;;;;;5061452;28;20464;-66
2024/04/07 04:48:01;;;;;;;24.93;23.83;;;20.80;66.20;;;;;;5061271;28;20572;-66
2024/04/07 04:50:28;;;;;;;24.23;23.37;;;20.80;65.50;;;;;;5051518;28;20471;-66
2024/04/07 04:52:53;;;;;;;25.10;24.10;;;20.80;65.80;;;;;;5064730;28;20439;-66
2024/04/07 04:55:20;;;;;;;26.30;25.30;;;20.80;65.90;;;;;;5061288;28;20460;-66
2024/04/07 04:57:47;;;;;;;24.20;23.10;;;20.70;66.00;;;;;;5061221;28;20224;-66
2024/04/07 05:00:14;;;;;;;25.67;24.47;;;20.80;66.20;;;;;;5062462;28;20440;-66
2024/04/07 05:02:40;;;;;;;25.20;24.20;;;20.80;66.40;;;;;;5064611;28;20581;-66
2024/04/07 05:05:10;;;;;;;23.73;22.57;;;20.70;66.60;;;;;;5062240;28;20532;-65
2024/04/07 05:07:36;;;;;;;23.80;22.70;;;20.80;67.10;;;;;;5061006;28;20481;-66
2024/04/07 05:10:04;;;;;;;23.87;22.43;;;20.90;67.90;;;;;;5061458;28;20445;-66
2024/04/07 05:12:29;;;;;;;22.13;20.70;;;21.00;68.30;;;;;;5062918;28;20475;-65
2024/04/07 05:14:56;;;;;;;22.40;21.40;;;21.00;68.30;;;;;;5063616;28;20491;-66
2024/04/07 05:17:23;;;;;;;23.07;22.00;;;21.00;68.60;;;;;;5052699;28;20194;-65
2024/04/07 05:19:51;;;;;;;23.47;21.57;;;21.10;69.10;;;;;;5060565;28;20523;-67
2024/04/07 05:22:18;;;;;;;22.10;20.87;;;21.10;69.00;;;;;;5062708;28;20480;-65
2024/04/07 05:24:45;;;;;;;22.27;21.37;;;21.10;68.80;;;;;;5063941;28;21039;-65
2024/04/07 05:27:10;;;;;;;23.23;22.37;;;21.00;68.80;;;;;;5062341;28;20446;-66
2024/04/07 05:29:38;;;;;;;22.63;21.73;;;21.10;69.20;;;;;;5060975;28;20441;-64
2024/04/07 05:32:05;;;;;;;22.15;21.13;;;21.10;69.40;;;;;;5061017;28;20435;-62
2024/04/07 05:34:31;;;;;;;22.40;21.50;;;21.10;69.50;;;;;;5063204;28;20213;-65
2024/04/07 05:36:59;;;;;;;22.60;21.70;;;21.10;69.40;;;;;;5064207;28;20456;-66
2024/04/07 05:39:27;;;;;;;21.53;20.63;;;21.10;70.00;;;;;;5052488;28;20444;-65
2024/04/07 05:41:53;;;;;;;21.97;21.17;;;21.10;69.60;;;;;;5059913;28;20863;-66
2024/04/07 05:44:19;;;;;;;22.17;21.20;;;21.10;69.50;;;;;;5062960;28;20462;-65
2024/04/07 05:46:45;;;;;;;22.47;21.47;;;21.20;69.40;;;;;;5058343;28;20220;-68
2024/04/07 05:49:12;;;;;;;22.23;21.27;;;21.10;69.20;;;;;;5063979;28;20818;-64
2024/04/07 05:51:37;;;;;;;24.40;22.77;;;21.20;69.40;;;;;;5059988;28;20190;-65
2024/04/07 05:54:04;;;;;;;22.60;21.70;;;21.20;69.10;;;;;;5060027;28;20457;-65
2024/04/07 05:56:31;;;;;;;23.07;21.97;;;21.20;69.00;;;;;;5063704;28;20197;-59
2024/04/07 05:58:58;;;;;;;24.30;23.00;;;21.20;69.00;;;;;;5063551;28;20443;-62
2024/04/07 06:01:24;;;;;;;23.50;22.57;;;21.20;68.70;;;;;;5059632;28;20476;-60
2024/04/07 06:03:50;;;;;;;23.30;22.07;;;21.20;68.80;;;;;;5059279;28;20489;-63
2024/04/07 06:06:16;;;;;;;23.00;21.97;;;21.20;68.20;;;;;;5062319;28;20216;-64
2024/04/07 06:08:43;;;;;;;23.37;22.37;;;21.20;68.00;;;;;;5063425;28;20439;-66
2024/04/07 06:11:08;;;;;;;24.30;23.30;;;21.20;67.90;;;;;;5061702;28;20194;-64
2024/04/07 06:13:36;;;;;;;24.10;23.20;;;21.20;68.00;;;;;;5059372;28;20462;-64
2024/04/07 06:16:02;;;;;;;24.40;23.50;;;21.20;68.30;;;;;;5060346;28;20201;-64
2024/04/07 06:18:29;;;;;;;24.73;23.53;;;21.20;67.80;;;;;;5063256;28;20443;-63
2024/04/07 06:20:55;;;;;;;24.00;23.10;;;21.30;67.50;;;;;;5062924;28;20440;-65
2024/04/07 06:23:23;;;;;;;23.17;22.27;;;21.30;67.70;;;;;;5059802;28;20474;-64
2024/04/07 06:25:49;;;;;;;23.27;22.17;;;21.30;68.60;;;;;;5059880;28;20209;-65
2024/04/07 06:28:16;;;;;;;23.60;22.80;;;21.30;67.70;;;;;;5061774;28;20528;-58
2024/04/07 06:30:43;;;;;;;23.90;22.90;;;21.30;67.80;;;;;;5062714;28;20435;-56
2024/04/07 06:33:10;;;;;;;24.90;23.93;;;21.30;68.50;;;;;;5061920;28;20501;-57
2024/04/07 06:35:37;;;;;;;24.30;23.30;;;21.40;67.90;;;;;;5056149;28;20989;-61
2024/04/07 06:38:04;;;;;;;24.50;23.60;;;21.40;68.00;;;;;;5062532;28;20450;-55
2024/04/07 06:40:30;;;;;;;23.80;23.00;;;21.30;67.90;;;;;;5059178;28;20436;-59
2024/04/07 06:42:57;;;;;;;24.70;23.60;;;21.30;68.10;;;;;;5059629;28;20478;-65
2024/04/07 06:45:22;;;;;;;23.73;22.83;;;21.30;68.20;;;;;;5062341;28;20703;-68
2024/04/07 06:47:50;;;;;;;23.90;22.70;;;21.30;68.30;;;;;;5062340;28;20446;-66
2024/04/07 06:50:16;;;;;;;23.40;22.50;;;21.40;68.40;;;;;;5060420;28;20208;-61
2024/04/07 06:52:43;;;;;;;22.83;21.93;;;21.40;68.40;;;;;;5059555;28;20476;-63
2024/04/07 06:55:09;;;;;;;22.48;21.33;;;21.40;68.30;;;;;;5059932;28;20540;-62
2024/04/07 06:57:35;;;;;;;24.40;23.33;;;21.40;68.70;;;;;;5062884;28;20204;-63
2024/04/07 07:00:01;;;;;;;23.17;22.20;;;21.40;68.50;;;;;;5061906;28;20668;-65
2024/04/07 07:02:31;;;;;;;24.60;23.50;;;21.50;68.50;;;;;;5051668;28;20551;-67
2024/04/07 07:04:58;;;;;;;24.07;23.07;;;21.50;68.70;;;;;;5058684;28;20464;-66
2024/04/07 07:07:25;;;;;;;25.63;24.73;;;21.50;68.50;;;;;;5062141;28;20439;-59
2024/04/07 07:09:50;;;;;;;23.80;22.90;;;21.50;68.70;;;;;;5055396;28;20443;-57
2024/04/07 07:12:17;;;;;;;22.90;22.10;;;21.50;68.60;;;;;;5060795;28;20452;-57
2024/04/07 07:14:43;;;;;;;24.50;23.30;;;21.50;69.10;;;;;;5059253;28;20573;-56
2024/04/07 07:17:10;;;;;;;23.13;22.23;;;21.50;68.90;;;;;;5059285;28;20447;-57
2024/04/07 07:19:35;;;;;;;24.47;23.37;;;21.50;69.20;;;;;;5062677;28;20193;-60
2024/04/07 07:22:03;;;;;;;24.60;23.23;;;21.40;69.30;;;;;;5062211;28;20482;-56
2024/04/07 07:24:29;;;;;;;25.63;24.43;;;21.50;69.40;;;;;;5050999;28;20570;-52
2024/04/07 07:26:56;;;;;;;25.77;24.60;;;21.50;69.20;;;;;;5058591;28;20432;-55
2024/04/07 07:29:22;;;;;;;24.50;23.53;;;21.50;69.10;;;;;;5061620;28;20209;-67
2024/04/07 07:31:49;;;;;;;23.00;22.00;;;21.40;69.10;;;;;;5062236;28;20439;-67
2024/04/07 07:34:14;;;;;;;24.43;23.43;;;21.40;68.90;;;;;;5060137;28;20225;-65
2024/04/07 07:36:41;;;;;;;24.50;23.60;;;21.40;68.60;;;;;;5051748;28;20502;-68
2024/04/07 07:39:10;;;;;;;26.30;25.10;;;21.40;68.30;;;;;;5063060;28;20220;-66
2024/04/07 07:41:37;;;;;;;26.60;25.53;;;21.50;68.50;;;;;;5065611;28;20569;-63
2024/04/07 07:44:04;;;;;;;26.57;25.47;;;21.40;68.80;;;;;;5065883;28;20470;-66
2024/04/07 07:46:30;;;;;;;24.43;23.43;;;21.40;69.00;;;;;;5054398;28;20444;-62
2024/04/07 07:48:56;;;;;;;24.40;23.30;;;21.50;68.70;;;;;;5066623;28;20439;-62
2024/04/07 07:51:22;;;;;;;24.53;23.33;;;21.50;68.90;;;;;;5062784;28;20441;-64
2024/04/07 07:53:49;;;;;;;25.30;24.23;;;21.50;68.90;;;;;;5068235;28;20466;-65
2024/04/07 07:56:16;;;;;;;25.30;24.10;;;21.50;68.80;;;;;;5064397;28;20197;-65
2024/04/07 07:58:43;;;;;;;25.40;24.40;;;21.50;68.40;;;;;;5062278;28;20501;-65
2024/04/07 08:01:09;;;;;;;25.10;24.20;;;21.50;68.00;;;;;;5062449;28;20455;-65
2024/04/07 08:03:36;;;;;;;25.53;24.63;;;21.50;68.30;;;;;;5065512;28;20479;-65
2024/04/07 08:06:03;;;;;;;24.87;23.90;;;21.50;68.10;;;;;;5065616;28;20814;-65
2024/04/07 08:08:30;;;;;;;24.93;23.90;;;21.40;68.30;;;;;;5062188;28;20444;-65
2024/04/07 08:10:57;;;;;;;24.90;23.90;;;21.40;68.40;;;;;;5061791;28;20931;-65
2024/04/07 08:13:25;;;;;;;24.30;23.00;;;21.50;68.40;;;;;;5064477;28;20441;-68
2024/04/07 08:15:56;;;;;;;25.30;23.90;;;21.40;68.60;;;;;;5065519;28;20436;-60
2024/04/07 08:18:24;;;;;;;25.87;24.87;;;21.50;69.20;;;;;;5062670;28;20443;-62
2024/04/07 08:20:50;;;;;;;25.57;24.53;;;21.50;69.20;;;;;;5061456;28;20451;-63
2024/04/07 08:23:18;;;;;;;23.83;22.90;;;21.50;69.20;;;;;;5063021;28;20476;-62
2024/04/07 08:25:45;;;;;;;26.30;25.10;;;21.50;69.30;;;;;;5065236;28;20822;-62
2024/04/07 08:28:12;;;;;;;24.90;23.63;;;21.40;68.90;;;;;;5064403;28;20465;-60
2024/04/07 08:30:39;;;;;;;23.70;22.83;;;21.40;68.80;;;;;;5061189;28;20449;-67
2024/04/07 08:33:06;;;;;;;24.07;23.07;;;21.40;68.90;;;;;;5061783;28;20533;-65
2024/04/07 08:35:31;;;;;;;24.50;23.30;;;21.50;69.30;;;;;;5061502;28;20463;-65
2024/04/07 08:37:58;;;;;;;23.47;22.37;;;21.50;69.70;;;;;;5061612;28;20448;-65
2024/04/07 08:40:24;;;;;;;25.10;24.13;;;21.50;70.20;;;;;;5063426;28;20205;-65
2024/04/07 08:42:53;;;;;;;24.10;23.10;;;21.50;69.50;;;;;;5064914;28;20482;-66
2024/04/07 08:45:19;;;;;;;24.30;23.10;;;21.50;69.40;;;;;;5062922;28;20459;-65
2024/04/07 08:47:48;;;;;;;24.43;23.33;;;21.50;69.80;;;;;;5061287;28;20861;-65
2024/04/07 08:50:14;;;;;;;25.67;24.17;;;21.50;70.90;;;;;;5060881;28;20444;-65
2024/04/07 08:52:43;;;;;;;25.60;24.57;;;21.50;72.50;;;;;;5065014;28;20443;-66
2024/04/07 08:55:09;;;;;;;24.73;23.83;;;21.50;72.60;;;;;;5064196;28;20463;-65
2024/04/07 08:57:37;;;;;;;27.93;25.47;;;21.50;73.40;;;;;;5061177;28;20443;-65
2024/04/07 09:00:05;;;;;;;29.77;27.73;;;21.60;74.70;;;;;;5060669;28;20452;-66
2024/04/07 09:02:33;;;;;;;30.00;27.90;;;21.60;78.70;;;;;;5062955;28;20471;-66
2024/04/07 09:05:00;;;;;;;36.83;33.77;;;21.60;79.90;;;;;;5059962;28;20812;-67
2024/04/07 09:07:27;;;;;;;38.57;35.97;;;21.60;80.00;;;;;;5063420;28;20448;-67
2024/04/07 09:09:53;;;;;;;38.77;35.27;;;21.70;79.30;;;;;;5063911;28;20444;-66
2024/04/07 09:12:19;;;;;;;36.57;33.70;;;21.70;78.20;;;;;;5062747;28;20446;-66
2024/04/07 09:14:48;;;;;;;35.00;31.77;;;21.70;77.80;;;;;;5060643;28;20218;-65
2024/04/07 09:17:15;;;;;;;33.60;31.50;;;21.70;75.40;;;;;;5060103;28;21152;-67
2024/04/07 09:19:41;;;;;;;30.90;29.10;;;21.70;75.10;;;;;;5064171;28;20439;-66
2024/04/07 09:22:09;;;;;;;31.13;28.60;;;21.70;74.60;;;;;;5063681;28;21024;-66
2024/04/07 09:24:36;;;;;;;27.17;25.80;;;21.70;72.80;;;;;;5052156;28;20218;-67
2024/04/07 09:27:06;;;;;;;26.60;25.27;;;21.70;71.60;;;;;;5060539;28;20936;-67
2024/04/07 09:29:33;;;;;;;25.37;24.13;;;21.70;71.00;;;;;;5063558;28;20439;-67
2024/04/07 09:32:01;;;;;;;26.60;25.20;;;21.70;69.30;;;;;;5063484;28;20443;-67
2024/04/07 09:34:28;;;;;;;26.90;25.30;;;21.70;69.40;;;;;;5061092;28;20472;-66
2024/04/07 09:36:55;;;;;;;26.83;25.37;;;21.70;69.70;;;;;;5060311;28;20854;-67
2024/04/07 09:39:23;;;;;;;26.63;25.33;;;21.70;69.40;;;;;;5061672;28;20444;-68
2024/04/07 09:41:54;;;;;;;26.37;25.17;;;21.70;68.40;;;;;;5063270;28;20451;-65
2024/04/07 09:44:21;;;;;;;25.83;24.53;;;21.70;67.80;;;;;;5062139;28;20963;-67
2024/04/07 09:46:48;;;;;;;25.27;24.27;;;21.70;65.80;;;;;;5060146;28;20495;-67
2024/04/07 09:49:14;;;;;;;25.73;24.63;;;21.80;65.00;;;;;;5060579;28;20440;-67
2024/04/07 09:51:43;;;;;;;26.00;24.80;;;21.80;65.90;;;;;;5063257;28;20458;-68
2024/04/07 09:54:18;;;;;;;25.57;24.57;;;21.80;67.00;;;;;;5063400;28;20478;-66
2024/04/07 09:56:47;;;;;;;25.33;23.80;;;21.80;66.10;;;;;;5053294;28;20454;-67
2024/04/07 09:59:14;;;;;;;24.63;23.73;;;21.80;66.60;;;;;;5060197;28;20459;-68
2024/04/07 10:01:41;;;;;;;24.27;23.37;;;21.80;65.80;;;;;;5062765;28;20496;-67
2024/04/07 10:04:07;;;;;;;24.47;23.47;;;21.80;66.20;;;;;;5063401;28;20471;-64
2024/04/07 10:06:35;;;;;;;25.33;24.13;;;21.80;65.50;;;;;;5060092;28;20966;-66
2024/04/07 10:09:02;;;;;;;26.00;24.90;;;21.80;65.90;;;;;;5059847;28;20444;-64
2024/04/07 10:11:29;;;;;;;25.37;24.27;;;21.80;65.40;;;;;;5061697;28;20479;-64
2024/04/07 10:13:56;;;;;;;25.77;24.77;;;21.80;64.50;;;;;;5063207;28;20820;-64
2024/04/07 10:16:24;;;;;;;25.50;24.40;;;21.80;65.20;;;;;;5061541;28;20524;-65
2024/04/07 10:18:50;;;;;;;25.40;24.50;;;21.80;62.40;;;;;;5059689;28;20828;-64
2024/04/07 10:21:17;;;;;;;26.40;25.40;;;21.80;63.00;;;;;;5059885;28;20489;-65
2024/04/07 10:23:43;;;;;;;25.20;24.30;;;21.80;62.40;;;;;;5063000;28;20591;-64
2024/04/07 10:26:11;;;;;;;25.10;24.00;;;21.80;61.40;;;;;;5063103;28;20448;-64
2024/04/07 10:28:50;;;;;;;24.47;23.57;;;21.80;62.90;;;;;;5059323;28;20443;-65
2024/04/07 10:31:23;;;;;;;24.30;23.40;;;21.80;63.20;;;;;;5059588;28;20447;-66
2024/04/07 10:33:50;;;;;;;24.40;23.17;;;21.80;62.90;;;;;;5062994;28;20486;-64
2024/04/07 10:36:20;;;;;;;24.87;23.90;;;21.80;63.20;;;;;;5062263;28;20447;-65
2024/04/07 10:38:48;;;;;;;25.10;24.13;;;21.80;62.20;;;;;;5059279;28;20497;-65
2024/04/07 10:41:17;;;;;;;25.73;24.73;;;21.80;62.40;;;;;;5059086;28;20827;-65
2024/04/07 10:43:45;;;;;;;24.50;23.50;;;21.80;62.60;;;;;;5062816;28;20568;-64
2024/04/07 10:46:12;;;;;;;24.93;24.03;;;21.80;63.00;;;;;;5062827;28;20887;-64
2024/04/07 10:48:39;;;;;;;24.00;23.10;;;21.80;62.30;;;;;;5059425;28;20805;-64
2024/04/07 10:51:09;;;;;;;24.93;23.80;;;21.90;62.00;;;;;;5059037;28;20452;-64
2024/04/07 10:53:35;;;;;;;23.90;23.00;;;21.80;63.00;;;;;;5062186;28;20524;-65
2024/04/07 10:56:02;;;;;;;23.43;22.53;;;21.90;63.00;;;;;;5062677;28;20439;-64
2024/04/07 10:58:28;;;;;;;23.57;22.77;;;21.90;63.10;;;;;;5060580;28;20448;-66
2024/04/07 11:00:55;;;;;;;24.60;23.70;;;21.90;63.20;;;;;;5058750;28;20505;-64
2024/04/07 11:03:21;;;;;;;24.20;23.40;;;21.90;63.50;;;;;;5059973;28;20217;-64
2024/04/07 11:05:50;;;;;;;24.00;23.10;;;21.90;63.30;;;;;;5062712;28;20447;-64
2024/04/07 11:08:16;;;;;;;24.77;23.67;;;21.90;63.20;;;;;;5062319;28;20443;-64
2024/04/07 11:10:42;;;;;;;24.87;23.90;;;21.90;62.60;;;;;;5058783;28;20513;-64
2024/04/07 11:13:08;;;;;;;23.47;22.57;;;22.00;62.60;;;;;;5062097;28;20444;-64
2024/04/07 11:15:35;;;;;;;24.47;23.63;;;21.90;62.60;;;;;;5065575;28;20473;-64
2024/04/07 11:18:12;;;;;;;24.70;23.80;;;21.90;62.50;;;;;;5066460;28;20208;-64
2024/04/07 11:20:39;;;;;;;23.60;22.80;;;21.90;63.30;;;;;;5062588;28;20946;-64
2024/04/07 11:23:07;;;;;;;24.67;23.80;;;22.00;62.60;;;;;;5063085;28;20812;-64
2024/04/07 11:25:34;;;;;;;23.67;22.87;;;22.00;62.20;;;;;;5065133;28;20483;-65
2024/04/07 11:28:00;;;;;;;23.13;22.33;;;22.00;62.50;;;;;;5066322;28;20446;-65
2024/04/07 11:30:34;;;;;;;23.73;22.93;;;22.00;63.10;;;;;;5064196;28;20455;-64
2024/04/07 11:33:07;;;;;;;23.30;22.40;;;22.00;62.80;;;;;;5062842;28;20699;-65
2024/04/07 11:35:36;;;;;;;22.90;22.00;;;22.00;62.70;;;;;;5065006;28;20468;-65
2024/04/07 11:38:03;;;;;;;23.77;22.87;;;22.00;62.40;;;;;;5066153;28;20451;-64
2024/04/07 11:40:31;;;;;;;23.30;22.50;;;22.00;62.20;;;;;;5063700;28;20443;-64
2024/04/07 11:42:57;;;;;;;22.60;21.80;;;22.00;62.60;;;;;;5062458;28;20480;-64
2024/04/07 11:45:24;;;;;;;23.70;22.83;;;22.00;62.60;;;;;;5063185;28;20480;-64
2024/04/07 11:47:50;;;;;;;24.47;23.47;;;22.00;62.90;;;;;;5065977;28;20442;-65
2024/04/07 11:50:16;;;;;;;23.50;22.70;;;22.00;63.20;;;;;;5065537;28;20450;-65
2024/04/07 11:52:42;;;;;;;23.40;22.40;;;22.00;63.10;;;;;;5054353;28;20190;-64
2024/04/07 11:55:09;;;;;;;24.63;23.57;;;22.00;62.40;;;;;;5062251;28;20466;-65
2024/04/07 11:57:36;;;;;;;23.77;22.97;;;22.10;62.40;;;;;;5064873;28;20202;-64
2024/04/07 12:00:04;;;;;;;24.77;23.77;;;22.10;61.90;;;;;;5065303;28;20439;-64
2024/04/07 12:02:30;;;;;;;22.70;21.90;;;22.10;61.40;;;;;;5063537;28;20471;-65
2024/04/07 12:04:57;;;;;;;25.17;24.20;;;22.10;60.90;;;;;;5061954;28;20529;-65
2024/04/07 12:07:23;;;;;;;23.27;22.47;;;22.10;60.40;;;;;;5063018;28;20197;-64
2024/04/07 12:09:50;;;;;;;24.83;23.93;;;22.10;59.70;;;;;;5065050;28;20877;-64
2024/04/07 12:12:16;;;;;;;23.93;22.93;;;22.10;59.60;;;;;;5065509;28;20530;-64
2024/04/07 12:14:44;;;;;;;23.07;22.17;;;22.10;59.70;;;;;;5053804;28;20539;-64
2024/04/07 12:17:10;;;;;;;24.60;23.70;;;22.20;59.90;;;;;;5062020;28;20672;-64
2024/04/07 12:19:37;;;;;;;26.20;25.20;;;22.10;59.50;;;;;;5064485;28;20444;-65
2024/04/07 12:22:08;;;;;;;25.63;24.50;;;22.20;59.60;;;;;;5064871;28;20243;-64
2024/04/07 12:24:35;;;;;;;24.80;23.80;;;22.20;59.60;;;;;;5062753;28;20541;-65
2024/04/07 12:27:01;;;;;;;23.60;22.80;;;22.20;59.30;;;;;;5061795;28;20523;-65
2024/04/07 12:29:27;;;;;;;23.93;23.03;;;22.20;59.20;;;;;;5062775;28;20449;-64